Time;durP1;ratioP1;P1;durP2;ratioP2;P2;SDS_P1;SDS_P2;PMS_P1;PMS_P2;Temp;Humidity;BMP_temperature;BMP_pressure;BME280_temperature;BME280_humidity;BME280_pressure;Samples;Min_cycle;Max_cycle;Signal;HPM_P1;HPM_P2
2022/08/15 00:01:24;;;;;;;16.70;13.45;;;;;;;17.76;100.00;98102.91;2210188;79;21073;-87
2022/08/15 00:04:24;;;;;;;19.10;13.68;;;;;;;17.74;100.00;98096.55;2239680;78;21005;-91
2022/08/15 00:07:25;;;;;;;18.25;14.25;;;;;;;17.70;100.00;98088.78;2243817;79;21050;-91
2022/08/15 00:10:26;;;;;;;17.62;13.10;;;;;;;17.68;100.00;98093.48;2249316;79;20990;-90
2022/08/15 00:13:28;;;;;;;14.70;12.50;;;;;;;17.66;100.00;98087.64;2248453;79;21055;-91
2022/08/15 00:16:32;;;;;;;18.82;13.03;;;;;;;17.67;100.00;98080.50;2240663;79;21481;-89
2022/08/15 00:19:32;;;;;;;17.42;13.68;;;;;;;17.68;100.00;98082.91;2226469;79;21034;-90
2022/08/15 00:22:33;;;;;;;16.23;13.45;;;;;;;17.68;100.00;98080.25;2225732;79;21049;-88
2022/08/15 00:25:39;;;;;;;17.17;13.88;;;;;;;17.62;100.00;98076.70;2226863;79;20989;-87
2022/08/15 00:28:36;;;;;;;16.25;14.40;;;;;;;17.60;100.00;98073.51;2233535;80;21017;-87
2022/08/15 00:31:38;;;;;;;15.90;12.85;;;;;;;17.57;100.00;98073.20;2228236;80;21008;-88
2022/08/15 00:34:39;;;;;;;18.80;14.07;;;;;;;17.53;100.00;98073.37;2227966;80;21028;-88
2022/08/15 00:37:39;;;;;;;15.18;11.38;;;;;;;17.49;100.00;98079.68;2229793;79;21604;-92
2022/08/15 00:43:59;;;;;;;19.60;14.87;;;;;;;17.08;100.00;98078.66;2242476;78;21059;-90
2022/08/15 00:47:02;;;;;;;20.85;16.30;;;;;;;16.80;100.00;98080.78;2228679;78;21488;-90
2022/08/15 00:50:04;;;;;;;18.40;14.90;;;;;;;16.70;100.00;98077.41;2249619;78;22148;-91
2022/08/15 00:53:06;;;;;;;18.75;13.20;;;;;;;16.71;100.00;98077.70;2265056;79;20973;-89
2022/08/15 00:56:07;;;;;;;15.35;13.08;;;;;;;16.71;100.00;98077.17;2261128;78;21563;-88
2022/08/15 00:59:08;;;;;;;14.83;12.50;;;;;;;16.72;100.00;98078.78;2259970;78;20980;-88
2022/08/15 01:02:08;;;;;;;16.37;12.98;;;;;;;16.76;100.00;98086.55;2233031;79;21064;-86
2022/08/15 01:05:09;;;;;;;18.10;13.83;;;;;;;16.77;100.00;98076.25;2226897;78;20989;-91
2022/08/15 01:08:10;;;;;;;16.87;13.45;;;;;;;16.79;100.00;98072.05;2219981;78;21069;-89
2022/08/15 01:11:11;;;;;;;15.93;13.22;;;;;;;16.83;100.00;98061.30;2216401;79;21125;-88
2022/08/15 01:14:12;;;;;;;16.55;13.13;;;;;;;16.87;100.00;98051.84;2232456;79;20998;-89
2022/08/15 01:17:12;;;;;;;19.62;14.13;;;;;;;16.92;100.00;98051.95;2226750;79;21041;-89
2022/08/15 01:20:13;;;;;;;16.62;13.60;;;;;;;16.88;100.00;98046.04;2232390;79;20977;-86
2022/08/15 01:23:14;;;;;;;18.60;14.55;;;;;;;16.88;100.00;98042.08;2229968;78;21552;-89
2022/08/15 01:26:15;;;;;;;19.73;14.70;;;;;;;16.90;100.00;98039.98;2212101;79;21531;-86
2022/08/15 01:29:16;;;;;;;17.07;13.08;;;;;;;16.92;100.00;98032.64;2192607;81;20993;-88
2022/08/15 01:32:17;;;;;;;21.35;14.85;;;;;;;16.94;100.00;98027.40;2210999;79;21037;-89
2022/08/15 01:35:18;;;;;;;18.40;13.53;;;;;;;16.97;100.00;98037.48;2223070;79;21469;-90
2022/08/15 01:38:18;;;;;;;18.20;13.30;;;;;;;16.97;100.00;98034.84;2201793;79;21056;-93
2022/08/15 01:41:19;;;;;;;16.27;12.47;;;;;;;16.93;100.00;98034.25;2220593;79;20986;-91
2022/08/15 01:44:20;;;;;;;18.25;13.48;;;;;;;16.86;100.00;98039.67;2230937;79;20982;-89
2022/08/15 01:47:20;;;;;;;17.70;14.65;;;;;;;16.71;100.00;98040.17;2211163;79;21085;-88
2022/08/15 01:50:21;;;;;;;19.62;13.65;;;;;;;16.62;100.00;98032.81;2225407;79;21477;-89
2022/08/15 01:53:23;;;;;;;18.25;13.98;;;;;;;16.63;100.00;98037.86;2214912;78;20997;-89
2022/08/15 01:56:23;;;;;;;15.08;13.43;;;;;;;16.63;100.00;98030.45;2213064;80;21548;-91
2022/08/15 01:59:24;;;;;;;19.07;14.07;;;;;;;16.64;100.00;98029.41;2210498;80;21056;-87
2022/08/15 02:02:25;;;;;;;17.80;13.55;;;;;;;16.65;100.00;98025.77;2208683;80;21013;-90
2022/08/15 02:05:26;;;;;;;17.15;13.70;;;;;;;16.66;100.00;98030.81;2213232;79;21554;-91
2022/08/15 02:08:26;;;;;;;18.60;13.35;;;;;;;16.69;100.00;98030.88;2230668;79;21053;-90
2022/08/15 02:11:28;;;;;;;16.73;12.73;;;;;;;16.70;100.00;98026.67;2220188;79;21011;-91
2022/08/15 02:14:30;;;;;;;16.73;13.13;;;;;;;16.67;100.00;98032.93;2223526;79;21013;-89
2022/08/15 02:17:31;;;;;;;15.35;12.40;;;;;;;16.64;100.00;98031.56;2228140;79;21538;-87
2022/08/15 02:20:32;;;;;;;32.13;21.68;;;;;;;16.65;100.00;98035.81;2210934;79;20998;-88
2022/08/15 02:23:32;;;;;;;23.42;19.17;;;;;;;16.59;100.00;98040.70;2217372;79;21137;-90
2022/08/15 02:26:33;;;;;;;27.50;21.30;;;;;;;16.49;100.00;98033.38;2221239;79;21480;-89
2022/08/15 02:29:34;;;;;;;25.20;20.77;;;;;;;16.46;100.00;98033.86;2220550;79;21058;-89
2022/08/15 02:32:38;;;;;;;28.98;20.62;;;;;;;16.42;100.00;98020.81;2228675;78;21077;-87
2022/08/15 02:35:38;;;;;;;25.72;19.65;;;;;;;16.44;100.00;98023.21;2231310;79;20962;-89
2022/08/15 02:38:39;;;;;;;24.23;18.85;;;;;;;16.42;100.00;98020.01;2218237;79;21048;-89
2022/08/15 02:41:39;;;;;;;20.55;17.25;;;;;;;16.41;100.00;98013.92;2224476;80;20993;-89
2022/08/15 02:44:41;;;;;;;20.37;16.73;;;;;;;16.42;100.00;98014.20;2221387;79;21116;-89
2022/08/15 02:47:43;;;;;;;22.20;18.85;;;;;;;16.33;100.00;98024.84;2185350;81;21081;-90
2022/08/15 02:50:45;;;;;;;20.85;16.70;;;;;;;16.08;100.00;98017.70;2236838;78;21064;-90
2022/08/15 02:53:46;;;;;;;24.65;18.17;;;;;;;15.97;100.00;98019.33;2264006;78;21131;-88
2022/08/15 02:56:50;;;;;;;21.12;18.52;;;;;;;15.89;100.00;98025.75;2263335;78;21073;-88
2022/08/15 02:59:51;;;;;;;24.00;17.02;;;;;;;15.90;100.00;98027.87;2210023;79;21103;-88
2022/08/15 03:02:54;;;;;;;23.30;15.20;;;;;;;15.92;100.00;98021.88;2233660;78;20985;-87
2022/08/15 03:05:54;;;;;;;20.37;16.65;;;;;;;15.95;100.00;98019.28;2219733;79;21101;-89
2022/08/15 03:09:00;;;;;;;25.17;17.85;;;;;;;15.94;100.00;98025.08;2226400;79;20989;-89
2022/08/15 03:11:58;;;;;;;20.75;16.25;;;;;;;16.00;100.00;98025.97;2222632;78;20975;-87
2022/08/15 03:14:59;;;;;;;21.17;15.83;;;;;;;16.04;100.00;98027.14;2217347;78;20985;-87
2022/08/15 03:18:00;;;;;;;20.02;16.37;;;;;;;16.06;100.00;98043.55;2232521;80;21587;-86
2022/08/15 03:21:01;;;;;;;24.45;17.77;;;;;;;16.00;100.00;98048.41;2221948;79;21511;-89
2022/08/15 03:24:01;;;;;;;21.52;16.32;;;;;;;15.98;100.00;98054.45;2223987;79;21542;-88
2022/08/15 03:27:02;;;;;;;22.00;16.70;;;;;;;15.94;100.00;98054.12;2231386;79;21483;-89
2022/08/15 03:30:03;;;;;;;20.97;17.12;;;;;;;15.91;100.00;98058.03;2235624;79;21045;-89
2022/08/15 03:33:04;;;;;;;24.00;17.80;;;;;;;15.89;100.00;98056.63;2228283;80;21437;-87
2022/08/15 03:36:05;;;;;;;25.85;17.40;;;;;;;15.91;100.00;98061.19;2232257;80;20988;-89
2022/08/15 03:39:05;;;;;;;24.60;17.75;;;;;;;15.95;100.00;98057.05;2231701;79;21053;-90
2022/08/15 03:42:07;;;;;;;24.07;18.42;;;;;;;16.02;100.00;98058.25;2247522;79;21021;-89
2022/08/15 03:45:08;;;;;;;25.02;18.27;;;;;;;16.08;100.00;98055.47;2240118;78;21061;-89
2022/08/15 03:48:09;;;;;;;25.55;18.50;;;;;;;16.16;100.00;98058.29;2242631;78;21563;-90
2022/08/15 03:51:09;;;;;;;27.35;19.27;;;;;;;16.19;100.00;98059.17;2239689;78;20974;-89
2022/08/15 03:54:12;;;;;;;24.70;19.75;;;;;;;16.20;100.00;98056.29;2238153;78;21070;-92
2022/08/15 03:57:12;;;;;;;23.90;17.82;;;;;;;16.25;100.00;98048.17;2202066;78;21511;-90
2022/08/15 04:00:13;;;;;;;26.95;19.27;;;;;;;16.30;100.00;98050.42;2221454;79;21034;-90
2022/08/15 04:03:14;;;;;;;21.73;16.07;;;;;;;16.31;100.00;98047.26;2216343;78;21597;-91
2022/08/15 04:06:16;;;;;;;21.82;15.08;;;;;;;16.26;100.00;98047.94;2233186;79;21496;-89
2022/08/15 04:09:16;;;;;;;18.87;15.45;;;;;;;16.23;100.00;98051.57;2237597;78;21081;-90
2022/08/15 04:12:17;;;;;;;20.23;16.93;;;;;;;16.14;100.00;98042.67;2235312;79;21009;-88
2022/08/15 04:15:18;;;;;;;20.80;16.17;;;;;;;16.15;100.00;98038.20;2214689;78;21032;-90
2022/08/15 04:18:20;;;;;;;26.05;16.75;;;;;;;16.19;100.00;98032.75;2224765;78;20973;-92
2022/08/15 04:21:20;;;;;;;23.45;16.50;;;;;;;16.21;100.00;98025.40;2228800;79;21603;-91
2022/08/15 04:24:21;;;;;;;22.52;16.20;;;;;;;16.24;100.00;98018.31;2232832;78;21063;-88
2022/08/15 04:27:22;;;;;;;20.65;16.45;;;;;;;16.29;100.00;98022.41;2222539;79;21113;-89
2022/08/15 04:30:23;;;;;;;24.50;15.90;;;;;;;16.35;100.00;98025.94;2229543;78;21026;-86
2022/08/15 04:33:24;;;;;;;20.80;15.28;;;;;;;16.39;100.00;98030.53;2130204;82;21521;-89
2022/08/15 04:36:26;;;;;;;21.30;15.93;;;;;;;16.44;100.00;98025.85;2161938;81;22134;-89
2022/08/15 04:39:27;;;;;;;23.35;16.97;;;;;;;16.51;100.00;98027.85;2160819;82;21041;-90
2022/08/15 04:42:28;;;;;;;20.57;16.45;;;;;;;16.59;100.00;98035.42;2160269;81;21033;-87
2022/08/15 04:45:30;;;;;;;19.95;15.85;;;;;;;16.65;100.00;98027.08;2158988;81;21049;-89
2022/08/15 04:48:31;;;;;;;18.60;15.20;;;;;;;16.73;100.00;98034.64;2153035;82;21108;-87
2022/08/15 04:51:32;;;;;;;17.45;14.73;;;;;;;16.76;100.00;98032.88;2177340;80;21564;-89
2022/08/15 04:54:32;;;;;;;18.12;15.80;;;;;;;16.83;100.00;98020.32;2174745;80;21015;-86
2022/08/15 04:57:33;;;;;;;20.95;16.00;;;;;;;16.95;100.00;98029.00;2154421;81;21468;-88
2022/08/15 05:00:36;;;;;;;20.48;15.93;;;;;;;17.03;100.00;98027.82;2172978;79;21024;-90
2022/08/15 05:03:37;;;;;;;20.20;15.50;;;;;;;17.06;100.00;98035.27;2141154;81;21056;-87
2022/08/15 05:06:38;;;;;;;15.95;14.25;;;;;;;17.12;100.00;98032.20;2149140;81;21014;-89
2022/08/15 05:09:39;;;;;;;20.27;15.28;;;;;;;17.17;100.00;98034.92;2146266;81;21008;-86
2022/08/15 05:12:40;;;;;;;18.45;15.18;;;;;;;17.30;100.00;98030.67;2181303;82;21020;-90
2022/08/15 05:15:41;;;;;;;20.10;16.35;;;;;;;17.47;100.00;98035.45;2154604;83;21020;-88
2022/08/15 05:18:41;;;;;;;18.05;14.90;;;;;;;17.62;100.00;98034.36;2183459;81;21009;-85
2022/08/15 05:21:42;;;;;;;17.30;15.35;;;;;;;17.79;100.00;98028.29;2140766;82;21388;-88
2022/08/15 05:24:43;;;;;;;20.43;16.97;;;;;;;17.90;100.00;98020.24;2183191;80;21032;-88
2022/08/15 05:27:44;;;;;;;22.32;16.85;;;;;;;17.97;100.00;98026.70;2204848;81;20977;-87
2022/08/15 05:30:45;;;;;;;18.90;16.50;;;;;;;18.13;100.00;98021.90;2201844;80;21043;-86
2022/08/15 05:33:45;;;;;;;21.17;15.00;;;;;;;18.25;100.00;98035.02;2156950;82;21033;-87
2022/08/15 05:36:49;;;;;;;21.12;14.90;;;;;;;18.19;100.00;98028.05;2228285;79;21600;-85
2022/08/15 05:39:49;;;;;;;18.50;15.28;;;;;;;18.10;100.00;98035.61;2240310;78;21076;-86
2022/08/15 05:42:49;;;;;;;23.83;17.62;;;;;;;18.06;100.00;98041.13;2254030;79;21501;-84
2022/08/15 05:45:51;;;;;;;21.60;17.77;;;;;;;18.08;100.00;98039.03;2237082;79;21622;-82
2022/08/15 05:48:53;;;;;;;22.75;17.35;;;;;;;18.23;100.00;98035.80;2152671;82;20962;-81
2022/08/15 05:51:54;;;;;;;20.60;16.60;;;;;;;18.42;100.00;98040.28;2142683;81;21090;-83
2022/08/15 05:54:55;;;;;;;19.45;16.62;;;;;;;18.56;100.00;98040.20;2183515;80;21036;-85
2022/08/15 05:57:56;;;;;;;19.52;15.85;;;;;;;18.72;100.00;98039.87;2159839;80;21087;-85
2022/08/15 06:00:57;;;;;;;17.42;15.38;;;;;;;18.81;100.00;98043.68;2207147;80;21032;-85
2022/08/15 06:03:57;;;;;;;17.98;14.30;;;;;;;18.93;100.00;98050.20;2236128;78;20965;-87
2022/08/15 06:06:58;;;;;;;18.42;14.83;;;;;;;19.00;100.00;98054.75;2216299;78;21032;-82
2022/08/15 06:09:59;;;;;;;20.17;16.02;;;;;;;19.08;100.00;98060.95;2218940;79;20930;-83
2022/08/15 06:12:59;;;;;;;16.95;15.28;;;;;;;19.20;100.00;98063.45;2232417;78;21476;-85
2022/08/15 06:16:00;;;;;;;20.55;17.50;;;;;;;19.26;100.00;98063.25;2235532;79;21091;-86
2022/08/15 06:19:01;;;;;;;22.90;17.07;;;;;;;19.30;100.00;98069.67;2222224;79;21040;-84
2022/08/15 06:22:02;;;;;;;18.23;14.83;;;;;;;19.35;100.00;98053.52;2218073;79;21627;-84
2022/08/15 06:25:03;;;;;;;13.78;12.25;;;;;;;19.40;100.00;98055.70;2215152;80;21040;-85
2022/08/15 06:28:04;;;;;;;15.32;12.93;;;;;;;19.43;100.00;98057.84;2215805;79;21108;-86
2022/08/15 06:31:05;;;;;;;13.83;12.35;;;;;;;19.48;100.00;98050.45;2233015;80;21540;-85
2022/08/15 06:34:06;;;;;;;11.78;10.58;;;;;;;19.55;100.00;98045.19;2234806;80;20962;-85
2022/08/15 06:37:07;;;;;;;16.62;11.50;;;;;;;19.58;100.00;98042.08;2218559;79;21537;-84
2022/08/15 06:40:07;;;;;;;12.93;11.03;;;;;;;19.67;100.00;98042.94;2234417;80;21057;-85
2022/08/15 06:43:09;;;;;;;14.13;11.95;;;;;;;19.76;100.00;98040.08;2229532;78;21047;-88
2022/08/15 06:46:10;;;;;;;12.65;11.33;;;;;;;20.10;100.00;98034.70;2154257;82;21096;-88
2022/08/15 06:49:11;;;;;;;12.95;11.48;;;;;;;20.40;100.00;98044.72;2145147;81;21072;-89
2022/08/15 06:52:12;;;;;;;12.88;11.60;;;;;;;20.52;100.00;98033.89;2181638;80;20977;-86
2022/08/15 06:55:14;;;;;;;12.93;11.57;;;;;;;20.56;100.00;98040.80;2203040;80;22104;-84
2022/08/15 06:58:15;;;;;;;11.38;10.25;;;;;;;20.67;100.00;98040.60;2204500;80;21052;-85
2022/08/15 07:01:17;;;;;;;13.30;9.95;;;;;;;20.83;100.00;98037.97;2145728;81;21078;-82
2022/08/15 07:04:18;;;;;;;10.48;9.58;;;;;;;21.07;100.00;98036.44;2234780;80;20972;-86
2022/08/15 07:07:19;;;;;;;10.55;9.45;;;;;;;21.34;100.00;98033.58;2228877;79;21048;-82
2022/08/15 07:10:20;;;;;;;11.88;10.35;;;;;;;21.55;100.00;98035.71;2232346;78;21150;-84
2022/08/15 07:13:21;;;;;;;9.40;8.50;;;;;;;21.76;100.00;98036.48;2239767;79;21044;-84
2022/08/15 07:16:21;;;;;;;10.05;9.15;;;;;;;21.86;100.00;98037.30;2232194;79;20961;-85
2022/08/15 07:19:22;;;;;;;10.30;9.43;;;;;;;21.94;100.00;98039.13;2230391;79;21310;-83
2022/08/15 07:22:25;;;;;;;9.33;8.35;;;;;;;22.03;100.00;98030.85;2236209;80;21004;-85
2022/08/15 07:25:25;;;;;;;9.98;8.98;;;;;;;22.13;100.00;98030.89;2225845;78;21640;-87
2022/08/15 07:28:26;;;;;;;9.20;8.30;;;;;;;22.23;100.00;98030.06;2229645;79;20985;-88
2022/08/15 07:31:27;;;;;;;9.98;8.95;;;;;;;22.26;100.00;98024.97;2227921;78;21119;-89
2022/08/15 07:34:29;;;;;;;12.98;9.30;;;;;;;22.39;100.00;98028.92;2230324;80;20992;-88
2022/08/15 07:37:32;;;;;;;8.93;8.05;;;;;;;22.53;100.00;98037.95;2155765;82;21560;-89
2022/08/15 07:40:32;;;;;;;9.40;8.48;;;;;;;22.74;100.00;98030.64;2220824;80;21077;-87
2022/08/15 07:43:35;;;;;;;9.60;8.70;;;;;;;22.92;100.00;98032.70;2164821;81;21049;-87
2022/08/15 07:46:36;;;;;;;7.35;6.65;;;;;;;23.09;100.00;98024.33;2181519;81;21111;-87
2022/08/15 07:49:37;;;;;;;6.92;6.00;;;;;;;23.28;100.00;98030.61;2166672;80;21086;-87
2022/08/15 07:52:38;;;;;;;6.22;5.75;;;;;;;23.48;100.00;98020.30;2211184;80;20998;-89
2022/08/15 07:55:39;;;;;;;7.15;5.85;;;;;;;23.70;100.00;98019.89;2215825;80;21071;-88
2022/08/15 07:58:41;;;;;;;6.40;5.28;;;;;;;23.89;100.00;98021.31;2218310;80;21062;-90
2022/08/15 08:01:41;;;;;;;6.03;5.50;;;;;;;24.11;100.00;98014.92;2217195;80;21050;-88
2022/08/15 08:04:43;;;;;;;6.28;5.30;;;;;;;24.29;100.00;98024.63;2185837;81;21021;-89
2022/08/15 08:07:47;;;;;;;6.67;6.08;;;;;;;24.37;100.00;98022.70;2185412;80;21040;-89
2022/08/15 08:10:48;;;;;;;6.12;5.37;;;;;;;24.48;100.00;98016.67;2227855;79;21013;-88
2022/08/15 08:13:49;;;;;;;5.80;5.08;;;;;;;24.58;100.00;98018.68;2221423;78;21096;-89
2022/08/15 08:16:51;;;;;;;8.10;5.47;;;;;;;24.67;100.00;98018.30;2230360;79;21049;-91
2022/08/15 08:19:52;;;;;;;5.05;4.55;;;;;;;24.74;100.00;98016.61;2233117;78;21084;-88
2022/08/15 08:22:53;;;;;;;5.62;5.12;;;;;;;24.75;100.00;98011.51;2152366;82;21051;-91
2022/08/15 08:25:54;;;;;;;7.08;4.90;;;;;;;24.75;100.00;98011.51;2185205;81;21005;-89
2022/08/15 08:28:55;;;;;;;5.97;5.47;;;;;;;24.81;100.00;98014.92;2138494;82;21048;-88
2022/08/15 08:31:56;;;;;;;5.92;5.42;;;;;;;24.83;100.00;98009.53;2172333;82;21390;-89
2022/08/15 08:34:57;;;;;;;6.75;5.90;;;;;;;24.89;100.00;98011.06;2170497;80;21531;-88
2022/08/15 08:37:58;;;;;;;5.20;4.78;;;;;;;24.95;100.00;98015.23;2175097;80;20981;-88
2022/08/15 08:44:18;;;;;;;5.80;5.25;;;;;;;25.13;100.00;98010.99;2171304;81;21577;-89
2022/08/15 08:47:19;;;;;;;7.67;6.05;;;;;;;25.26;100.00;98010.81;2176670;82;21017;-89
2022/08/15 08:50:20;;;;;;;6.85;5.95;;;;;;;25.29;100.00;98017.47;2175686;80;20965;-88
2022/08/15 08:53:20;;;;;;;7.28;6.15;;;;;;;25.22;100.00;98010.59;2172329;82;21096;-88
2022/08/15 08:56:21;;;;;;;5.85;5.33;;;;;;;25.18;100.00;98006.11;2170512;81;21029;-88
2022/08/15 08:59:23;;;;;;;9.33;5.87;;;;;;;25.30;100.00;98009.67;2169755;82;21086;-86
2022/08/15 09:02:26;;;;;;;6.08;5.58;;;;;;;25.46;100.00;98015.05;2168473;81;22187;-88
2022/08/15 09:05:27;;;;;;;7.45;5.05;;;;;;;25.52;100.00;97992.45;2172926;80;21071;-86
2022/08/15 09:08:28;;;;;;;6.15;4.97;;;;;;;25.61;100.00;98005.97;2164330;80;21088;-87
2022/08/15 09:11:29;;;;;;;5.90;5.10;;;;;;;25.60;100.00;98010.51;2171783;81;21108;-87
2022/08/15 09:14:29;;;;;;;5.50;4.90;;;;;;;25.64;100.00;98002.15;2176356;81;20982;-87
2022/08/15 09:17:30;;;;;;;7.10;5.58;;;;;;;25.72;100.00;98011.44;2170184;81;21613;-87
2022/08/15 09:20:31;;;;;;;4.78;4.35;;;;;;;25.65;100.00;98005.63;2173596;81;20989;-87
2022/08/15 09:23:32;;;;;;;7.20;4.55;;;;;;;25.62;100.00;98010.23;2176390;80;20957;-86
2022/08/15 09:26:33;;;;;;;8.43;4.78;;;;;;;25.66;100.00;98001.30;2172585;80;21092;-88
2022/08/15 09:29:34;;;;;;;4.17;3.87;;;;;;;25.77;100.00;97999.27;2174241;81;21079;-88
2022/08/15 09:32:35;;;;;;;5.90;5.40;;;;;;;25.86;100.00;97996.70;2169405;82;21073;-88
2022/08/15 09:35:35;;;;;;;4.85;4.35;;;;;;;25.88;100.00;97984.61;2173455;80;20984;-87
2022/08/15 09:38:37;;;;;;;4.62;4.22;;;;;;;25.88;100.00;97987.80;2179423;80;20996;-88
2022/08/15 09:41:40;;;;;;;4.42;3.67;;;;;;;26.00;100.00;97990.27;2160981;81;20989;-89
2022/08/15 09:44:40;;;;;;;4.35;4.05;;;;;;;26.08;100.00;97990.13;2184828;81;21048;-88
2022/08/15 09:47:41;;;;;;;4.85;4.50;;;;;;;26.07;100.00;97998.72;2202119;80;21016;-87
2022/08/15 09:50:42;;;;;;;5.35;4.35;;;;;;;26.09;100.00;97987.69;2156066;81;21072;-88
2022/08/15 09:53:43;;;;;;;6.03;5.53;;;;;;;26.22;100.00;97991.45;2148875;82;21088;-88
2022/08/15 09:56:44;;;;;;;5.67;4.83;;;;;;;26.28;100.00;97985.70;2155531;81;21004;-89
2022/08/15 09:59:44;;;;;;;6.22;5.42;;;;;;;26.41;100.00;97983.32;2205255;80;21589;-88
2022/08/15 10:02:45;;;;;;;5.37;4.87;;;;;;;26.47;100.00;97981.58;2153622;82;21096;-87
2022/08/15 10:05:47;;;;;;;4.62;4.22;;;;;;;26.50;100.00;97975.59;2153596;81;21559;-87
2022/08/15 10:08:47;;;;;;;6.78;5.90;;;;;;;26.49;100.00;97979.94;2158050;82;21047;-87
2022/08/15 10:11:48;;;;;;;5.28;4.78;;;;;;;26.52;100.00;97978.02;2160203;81;21092;-89
2022/08/15 10:14:49;;;;;;;8.65;7.00;;;;;;;26.54;100.00;97981.97;2160913;82;21028;-89
2022/08/15 10:17:51;;;;;;;7.85;6.05;;;;;;;26.57;100.00;97979.23;2159031;82;21080;-88
2022/08/15 10:20:51;;;;;;;9.35;6.78;;;;;;;26.56;100.00;97968.25;2126926;82;21147;-88
2022/08/15 10:23:52;;;;;;;6.22;5.62;;;;;;;26.60;100.00;97965.19;2158852;82;20976;-88
2022/08/15 10:26:53;;;;;;;6.25;5.65;;;;;;;26.63;100.00;97968.64;2159653;82;21055;-87
2022/08/15 10:29:56;;;;;;;7.53;6.10;;;;;;;26.69;100.00;97967.95;2158839;82;21642;-88
2022/08/15 10:32:57;;;;;;;7.37;6.03;;;;;;;26.67;100.00;97973.63;2159132;81;21024;-86
2022/08/15 10:35:58;;;;;;;7.28;5.62;;;;;;;26.64;100.00;97964.30;2158749;82;21907;-88
2022/08/15 10:38:59;;;;;;;7.40;5.83;;;;;;;26.61;100.00;97966.80;2186312;80;21500;-88
2022/08/15 10:42:00;;;;;;;5.78;5.37;;;;;;;26.63;100.00;97967.30;2202983;80;21002;-88
2022/08/15 10:45:01;;;;;;;6.75;6.15;;;;;;;26.59;100.00;97961.72;2204569;81;21046;-87
2022/08/15 10:48:02;;;;;;;6.75;6.15;;;;;;;26.64;100.00;97968.33;2195189;80;21002;-88
2022/08/15 10:51:03;;;;;;;8.20;7.53;;;;;;;26.73;100.00;97971.64;2203350;80;21040;-88
2022/08/15 10:54:09;;;;;;;6.60;6.03;;;;;;;26.78;100.00;97966.14;2203122;80;21020;-88
2022/08/15 10:57:06;;;;;;;8.05;6.80;;;;;;;26.79;100.00;97967.73;2150306;82;21024;-87
2022/08/15 11:00:07;;;;;;;9.95;7.72;;;;;;;26.82;100.00;97962.56;2188628;81;21124;-86
2022/08/15 11:03:08;;;;;;;7.28;6.53;;;;;;;26.85;100.00;97968.66;2209278;80;21474;-87
2022/08/15 11:06:12;;;;;;;7.28;6.62;;;;;;;26.90;100.00;97972.59;2152963;80;22639;-87
2022/08/15 11:09:13;;;;;;;6.85;6.25;;;;;;;26.86;100.00;97970.25;2147952;81;21040;-87
2022/08/15 11:12:14;;;;;;;7.40;5.90;;;;;;;26.83;100.00;97967.38;2154743;82;21064;-86
2022/08/15 11:15:14;;;;;;;8.30;7.60;;;;;;;26.87;100.00;97962.98;2160596;81;21047;-87
2022/08/15 11:18:15;;;;;;;8.25;6.90;;;;;;;26.90;100.00;97967.22;2161264;81;21116;-87
2022/08/15 11:21:16;;;;;;;8.58;6.60;;;;;;;26.93;100.00;97965.80;2162617;82;21065;-87
2022/08/15 11:24:17;;;;;;;10.00;7.30;;;;;;;26.88;100.00;97958.67;2164065;82;21051;-86
2022/08/15 11:27:17;;;;;;;7.42;6.83;;;;;;;26.84;100.00;97968.42;2161987;81;21499;-88
2022/08/15 11:30:18;;;;;;;8.80;5.95;;;;;;;26.91;100.00;97974.72;2159666;82;21330;-88
2022/08/15 11:33:22;;;;;;;7.78;6.70;;;;;;;26.97;100.00;97972.14;2161645;82;21114;-86
2022/08/15 11:36:23;;;;;;;7.92;6.75;;;;;;;27.03;100.00;97980.92;2164541;81;21059;-88
2022/08/15 11:39:23;;;;;;;8.53;7.03;;;;;;;27.02;100.00;97965.87;2162536;82;21004;-86
2022/08/15 11:42:24;;;;;;;6.97;6.33;;;;;;;27.12;100.00;97971.03;2163400;82;21040;-87
2022/08/15 11:45:26;;;;;;;9.25;7.60;;;;;;;27.13;100.00;97965.91;2154154;82;21075;-86
2022/08/15 11:48:27;;;;;;;7.45;6.85;;;;;;;27.12;100.00;97969.69;2155406;82;21108;-87
2022/08/15 11:51:28;;;;;;;7.70;6.95;;;;;;;27.09;100.00;97972.45;2164510;81;21036;-89
2022/08/15 11:54:28;;;;;;;8.33;7.50;;;;;;;27.11;100.00;97976.17;2152399;81;21067;-89
2022/08/15 11:57:29;;;;;;;8.73;6.55;;;;;;;27.14;100.00;97960.22;2165073;81;21032;-89
2022/08/15 12:00:30;;;;;;;8.38;7.15;;;;;;;27.22;100.00;97962.73;2165035;81;21019;-87
2022/08/15 12:03:31;;;;;;;7.83;7.05;;;;;;;27.30;100.00;97956.62;2149926;81;21075;-90
2022/08/15 12:06:37;;;;;;;7.87;7.08;;;;;;;27.33;100.00;97960.02;2158890;81;21104;-87
2022/08/15 12:09:37;;;;;;;6.97;6.47;;;;;;;27.37;100.00;97953.50;2141156;82;21104;-86
2022/08/15 12:12:37;;;;;;;7.50;6.45;;;;;;;27.38;100.00;97948.38;2204624;80;21541;-87
2022/08/15 12:15:39;;;;;;;7.87;7.08;;;;;;;27.36;100.00;97939.83;2158657;81;21124;-86
2022/08/15 12:18:39;;;;;;;6.70;6.12;;;;;;;27.42;100.00;97942.05;2150118;81;20985;-88
2022/08/15 12:21:40;;;;;;;7.00;6.40;;;;;;;27.45;100.00;97945.50;2123191;82;21465;-86
2022/08/15 12:24:41;;;;;;;8.18;7.08;;;;;;;27.55;100.00;97943.64;2171737;80;21465;-87
2022/08/15 12:27:42;;;;;;;7.17;6.33;;;;;;;27.57;100.00;97940.09;2150625;81;20995;-86
2022/08/15 12:30:46;;;;;;;8.33;7.62;;;;;;;27.62;100.00;97946.14;2187977;79;21030;-86
2022/08/15 12:33:47;;;;;;;6.87;6.25;;;;;;;27.61;100.00;97930.30;2220299;79;21504;-86
2022/08/15 12:36:47;;;;;;;7.42;6.72;;;;;;;27.61;100.00;97926.27;2226204;78;20992;-88
2022/08/15 12:39:48;;;;;;;8.68;6.70;;;;;;;27.63;100.00;97930.80;2232760;79;20996;-87
2022/08/15 12:42:49;;;;;;;6.40;5.90;;;;;;;27.63;100.00;97932.94;2231132;80;21024;-88
2022/08/15 12:45:50;;;;;;;9.40;5.97;;;;;;;27.69;100.00;97925.54;2231371;79;21055;-87
2022/08/15 12:48:53;;;;;;;7.90;6.72;;;;;;;27.79;100.00;97929.30;2231165;79;21044;-88
2022/08/15 12:51:53;;;;;;;8.33;7.55;;;;;;;27.82;100.00;97919.28;2225134;79;21097;-88
2022/08/15 12:54:54;;;;;;;9.55;8.55;;;;;;;27.87;100.00;97907.58;2229748;78;21119;-87
2022/08/15 12:57:57;;;;;;;6.05;5.55;;;;;;;27.89;100.00;97908.05;2235182;80;21060;-86
2022/08/15 13:01:00;;;;;;;8.45;6.17;;;;;;;27.94;98.51;97912.75;2228407;79;21501;-86
2022/08/15 13:04:04;;;;;;;7.05;6.30;;;;;;;27.98;96.99;97911.03;2216527;79;21031;-87
2022/08/15 13:07:03;;;;;;;9.85;6.08;;;;;;;28.02;96.19;97906.60;2189662;81;21591;-86
2022/08/15 13:10:03;;;;;;;6.70;6.00;;;;;;;28.05;96.45;97907.31;2172064;81;21018;-88
2022/08/15 13:13:04;;;;;;;7.55;6.95;;;;;;;28.05;95.94;97897.89;2190062;81;21634;-89
2022/08/15 13:16:09;;;;;;;8.50;6.65;;;;;;;28.09;98.33;97894.59;2222812;78;21032;-89
2022/08/15 13:19:10;;;;;;;5.67;5.17;;;;;;;28.10;97.35;97892.14;2230951;79;20996;-89
2022/08/15 13:25:32;;;;;;;8.45;7.65;;;;;;;28.11;96.96;97899.90;2227988;78;21084;-86
2022/08/15 13:28:32;;;;;;;6.12;5.53;;;;;;;28.08;95.61;97896.50;2229272;79;21056;-85
2022/08/15 13:31:34;;;;;;;6.30;5.75;;;;;;;28.12;81.01;97893.96;2227125;79;21087;-86
2022/08/15 13:34:36;;;;;;;6.95;6.28;;;;;;;28.17;58.15;97893.83;2230814;79;21117;-85
2022/08/15 13:37:37;;;;;;;8.75;7.90;;;;;;;28.19;56.03;97887.57;2217480;79;21093;-85
2022/08/15 13:40:40;;;;;;;5.92;5.35;;;;;;;28.20;56.43;97888.59;2234541;79;21476;-87
2022/08/15 13:43:42;;;;;;;6.72;6.22;;;;;;;28.18;54.27;97884.09;2229314;78;21109;-87
2022/08/15 13:46:44;;;;;;;6.42;5.80;;;;;;;28.15;55.04;97883.35;2234258;79;21357;-87
2022/08/15 13:49:45;;;;;;;8.00;5.97;;;;;;;28.16;54.38;97882.80;2226819;78;21532;-86
2022/08/15 13:52:48;;;;;;;6.58;5.70;;;;;;;28.16;53.80;97879.55;2223799;78;21006;-87
2022/08/15 13:55:50;;;;;;;8.15;7.35;;;;;;;28.16;53.86;97878.20;2216504;79;21057;-87
2022/08/15 13:58:51;;;;;;;6.95;6.30;;;;;;;28.21;54.83;97882.66;2230462;79;21016;-86
2022/08/15 14:01:52;;;;;;;6.60;6.10;;;;;;;28.23;54.43;97888.52;2231332;79;21029;-86